Terminal Aerodrome Forecast
Issued by NWS

Home | Current Version | Previous Version | Text Only | Print | Product List | Glossary On
Versions: 1 2 3 4 5 6 7 8 9 10 11 12 13 14
000
FTUS46 KSEW 281700
TAFCLM
TAF
KCLM 281720Z 2818/2918 25006KT P6SM SCT020 BKN030
     FM290000 VRB04KT P6SM SCT030 BKN050
     FM290600 05006KT P6SM SCT050 BKN130
     FM291100 05012KT P6SM SCT130 BKN250=

USA.gov is the U.S. government's official web portal to all federal, state and local government web resources and services.